Time;durP1;ratioP1;P1;durP2;ratioP2;P2;SDS_P1;SDS_P2;PMS_P1;PMS_P2;Temp;Humidity;BMP_temperature;BMP_pressure;BME280_temperature;BME280_humidity;BME280_pressure;Samples;Min_cycle;Max_cycle;Signal;HPM_P1;HPM_P2
2024/01/14 00:00:10;;;;;;;20.83;2.88;;;4.80;99.90;;;;;;4979612;28;20072;-84
2024/01/14 00:02:38;;;;;;;20.05;2.45;;;4.00;99.90;;;;;;5013617;28;20092;-83
2024/01/14 00:05:06;;;;;;;20.85;2.03;;;4.10;99.90;;;;;;5013609;28;20048;-84
2024/01/14 00:07:32;;;;;;;20.23;2.47;;;4.10;99.90;;;;;;4979668;28;20057;-87
2024/01/14 00:09:58;;;;;;;22.15;3.70;;;5.20;99.90;;;;;;4994527;28;20058;-94
2024/01/14 00:12:25;;;;;;;26.45;3.28;;;4.80;99.90;;;;;;5012760;28;20057;-83
2024/01/14 00:14:51;;;;;;;12.98;2.22;;;5.40;99.90;;;;;;5013683;28;20058;-83
2024/01/14 00:17:17;;;;;;;18.20;3.03;;;5.20;99.90;;;;;;5015018;28;20584;-86
2024/01/14 00:19:43;;;;;;;23.92;3.35;;;4.10;99.90;;;;;;5016019;28;20049;-84
2024/01/14 00:22:08;;;;;;;15.07;2.53;;;5.20;99.90;;;;;;5016129;28;20099;-84
2024/01/14 00:24:34;;;;;;;18.45;2.40;;;5.40;99.90;;;;;;4997552;28;20544;-84
2024/01/14 00:27:00;;;;;;;20.00;1.95;;;4.40;99.90;;;;;;5014683;28;20046;-81
2024/01/14 00:29:26;;;;;;;18.52;2.38;;;3.90;99.90;;;;;;5014664;28;20153;-94
2024/01/14 00:31:52;;;;;;;19.65;2.72;;;4.10;99.90;;;;;;5007333;28;20061;-87
2024/01/14 00:34:17;;;;;;;14.43;2.58;;;5.40;99.90;;;;;;4999882;28;20523;-83
2024/01/14 00:36:43;;;;;;;17.95;2.47;;;4.00;99.90;;;;;;5016964;28;20037;-85
2024/01/14 00:39:08;;;;;;;24.67;2.65;;;4.00;99.90;;;;;;5019663;28;20473;-82
2024/01/14 00:41:34;;;;;;;16.02;1.58;;;4.80;99.90;;;;;;5019596;28;20046;-93
2024/01/14 00:44:00;;;;;;;21.23;2.03;;;4.80;99.90;;;;;;5019130;28;20038;-84
2024/01/14 00:46:26;;;;;;;14.70;1.42;;;4.20;99.90;;;;;;5019320;28;20489;-84
2024/01/14 00:48:52;;;;;;;20.73;1.92;;;4.20;99.90;;;;;;5017545;28;20061;-83
2024/01/14 00:51:18;;;;;;;12.73;2.03;;;5.00;99.90;;;;;;5001913;28;20057;-85
2024/01/14 00:53:43;;;;;;;10.65;1.42;;;4.80;99.90;;;;;;5021388;28;20037;-83
2024/01/14 00:56:09;;;;;;;11.20;1.58;;;4.30;99.90;;;;;;5019925;28;20038;-87
2024/01/14 00:58:35;;;;;;;9.32;1.13;;;4.30;99.90;;;;;;5002784;28;20069;-84
2024/01/14 01:01:00;;;;;;;17.63;1.98;;;4.30;99.90;;;;;;5021196;28;20089;-89
2024/01/14 01:03:26;;;;;;;16.15;1.95;;;5.40;99.90;;;;;;5022495;28;20036;-84
2024/01/14 01:05:54;;;;;;;13.13;1.60;;;4.30;99.90;;;;;;5020173;28;20038;-85
2024/01/14 01:08:20;;;;;;;16.90;2.40;;;5.50;99.90;;;;;;5002746;28;20058;-85
2024/01/14 01:10:46;;;;;;;14.30;1.50;;;4.20;99.90;;;;;;5019294;28;20077;-83
2024/01/14 01:13:12;;;;;;;17.50;2.00;;;4.90;99.90;;;;;;5004090;28;20045;-82
2024/01/14 01:15:37;;;;;;;17.30;1.65;;;5.40;99.90;;;;;;5019069;28;20050;-83
2024/01/14 01:18:03;;;;;;;14.25;1.80;;;4.20;99.90;;;;;;5021113;28;20180;-83
2024/01/14 01:20:29;;;;;;;7.95;1.33;;;4.30;99.90;;;;;;5019852;28;20037;-82
2024/01/14 01:22:55;;;;;;;11.98;1.40;;;4.50;99.90;;;;;;4985445;28;20060;-83
2024/01/14 01:25:21;;;;;;;11.05;1.75;;;4.20;99.90;;;;;;5002093;28;20137;-84
2024/01/14 01:27:46;;;;;;;13.45;1.50;;;4.80;99.90;;;;;;5019427;28;20061;-87
2024/01/14 01:30:12;;;;;;;15.07;1.40;;;4.10;99.90;;;;;;5020548;28;20109;-84
2024/01/14 01:32:38;;;;;;;16.75;2.28;;;4.10;99.90;;;;;;5021936;28;20057;-82
2024/01/14 01:35:04;;;;;;;12.52;1.30;;;4.60;99.90;;;;;;5021769;28;20052;-82
2024/01/14 01:37:30;;;;;;;15.43;1.63;;;4.00;99.90;;;;;;5020664;28;20056;-82
2024/01/14 01:39:56;;;;;;;12.10;1.45;;;5.20;99.90;;;;;;5021647;28;20041;-82
2024/01/14 01:42:23;;;;;;;8.88;1.48;;;4.30;99.90;;;;;;5006174;28;20042;-83
2024/01/14 01:44:49;;;;;;;10.95;1.50;;;4.90;99.90;;;;;;5003730;28;20132;-83
2024/01/14 01:47:16;;;;;;;10.38;1.35;;;3.70;99.90;;;;;;5023412;28;20081;-83
2024/01/14 01:49:44;;;;;;;12.95;1.40;;;4.60;99.90;;;;;;5021113;28;20065;-83
2024/01/14 01:52:11;;;;;;;9.98;1.25;;;3.70;99.90;;;;;;5021253;28;20103;-82
2024/01/14 01:54:38;;;;;;;17.00;1.45;;;3.60;99.90;;;;;;5021638;28;20462;-82
2024/01/14 01:57:09;;;;;;;16.77;1.50;;;3.50;99.90;;;;;;5022220;28;20144;-82
2024/01/14 01:59:37;;;;;;;10.32;1.20;;;4.40;99.90;;;;;;5003731;28;20883;-83
2024/01/14 02:02:05;;;;;;;11.30;1.10;;;3.40;99.90;;;;;;5003946;28;20046;-83
2024/01/14 02:04:31;;;;;;;13.95;1.50;;;3.30;99.90;;;;;;5021133;28;20522;-82
2024/01/14 02:07:00;;;;;;;10.93;1.70;;;4.50;99.90;;;;;;5021650;28;20038;-84
2024/01/14 02:09:26;;;;;;;15.00;1.58;;;3.20;99.90;;;;;;5002690;28;20136;-81
2024/01/14 02:11:52;;;;;;;12.10;1.50;;;3.50;99.90;;;;;;5019883;28;20408;-82
2024/01/14 02:14:18;;;;;;;10.75;1.05;;;3.10;99.90;;;;;;5019788;28;20046;-84
2024/01/14 02:16:43;;;;;;;12.50;1.35;;;4.20;99.90;;;;;;5020879;28;20042;-83
2024/01/14 02:19:10;;;;;;;12.57;1.40;;;4.20;99.90;;;;;;5020991;28;20147;-88
2024/01/14 02:22:03;;;;;;;11.38;1.50;;;4.10;99.90;;;;;;5022365;28;20046;-81
2024/01/14 02:24:33;;;;;;;12.07;1.33;;;2.90;99.90;;;;;;5001402;28;20093;-85
2024/01/14 02:26:59;;;;;;;14.88;1.42;;;2.80;99.90;;;;;;5019487;28;20072;-89
2024/01/14 02:29:28;;;;;;;12.38;2.10;;;4.00;99.90;;;;;;5020975;28;20045;-86
2024/01/14 02:31:55;;;;;;;12.25;1.65;;;4.00;99.90;;;;;;4982807;28;20054;-82
2024/01/14 02:34:21;;;;;;;18.50;1.88;;;3.50;99.90;;;;;;4992186;28;20085;-83
2024/01/14 02:36:46;;;;;;;10.57;1.10;;;4.10;99.90;;;;;;5021188;28;20405;-83
2024/01/14 02:39:12;;;;;;;9.80;1.15;;;2.50;99.90;;;;;;5021441;28;20081;-82
2024/01/14 02:41:38;;;;;;;18.02;2.00;;;2.50;99.90;;;;;;4986178;28;20533;-82
2024/01/14 02:44:14;;;;;;;11.43;1.90;;;3.80;99.90;;;;;;5019764;28;20471;-82
2024/01/14 02:46:41;;;;;;;9.07;1.63;;;2.50;99.90;;;;;;5002338;28;20061;-82
2024/01/14 02:49:07;;;;;;;18.13;1.48;;;2.30;99.90;;;;;;5019424;28;20141;-86
2024/01/14 02:51:32;;;;;;;16.67;1.80;;;2.40;99.90;;;;;;5020035;28;20077;-82
2024/01/14 02:54:19;;;;;;;7.93;1.20;;;3.70;99.90;;;;;;5001882;28;20093;-82
2024/01/14 02:56:44;;;;;;;14.98;1.85;;;3.70;99.90;;;;;;5002193;28;20050;-88
2024/01/14 02:59:10;;;;;;;18.83;1.98;;;2.40;99.90;;;;;;5019275;28;20187;-83
2024/01/14 03:01:46;;;;;;;10.38;1.20;;;2.50;99.90;;;;;;5003506;28;20046;-83
2024/01/14 03:04:12;;;;;;;16.83;1.80;;;2.40;99.90;;;;;;5023972;28;20105;-84
2024/01/14 03:06:38;;;;;;;14.57;1.27;;;2.30;99.90;;;;;;5021196;28;20057;-82
2024/01/14 03:09:06;;;;;;;11.65;1.80;;;2.30;99.90;;;;;;5023810;28;20042;-82
2024/01/14 03:11:33;;;;;;;15.57;1.48;;;2.40;99.90;;;;;;5001975;28;20050;-83
2024/01/14 03:13:59;;;;;;;14.98;1.90;;;3.70;99.90;;;;;;5021602;28;20401;-82
2024/01/14 03:16:25;;;;;;;20.20;2.35;;;3.70;99.90;;;;;;5021526;28;20119;-87
2024/01/14 03:18:51;;;;;;;20.33;2.38;;;3.50;99.90;;;;;;5021521;28;20074;-91
2024/01/14 03:21:21;;;;;;;18.35;2.00;;;2.50;99.90;;;;;;5000700;28;20405;-86
2024/01/14 03:23:46;;;;;;;20.10;3.05;;;2.50;99.90;;;;;;5018702;28;20046;-83
2024/01/14 03:26:12;;;;;;;17.45;1.75;;;2.30;99.90;;;;;;5000611;28;20573;-86
2024/01/14 03:28:39;;;;;;;22.60;2.17;;;2.80;99.90;;;;;;4998009;28;20120;-86
2024/01/14 03:31:05;;;;;;;14.55;1.77;;;3.00;99.90;;;;;;5016713;28;20064;-93
2024/01/14 03:33:31;;;;;;;16.50;1.95;;;2.40;99.90;;;;;;4999954;28;20084;-84
2024/01/14 03:36:03;;;;;;;19.50;2.35;;;3.50;99.90;;;;;;5001638;28;20060;-83
2024/01/14 03:38:29;;;;;;;27.48;2.15;;;2.40;99.90;;;;;;5002010;28;20050;-88
2024/01/14 03:40:54;;;;;;;19.83;2.10;;;2.50;99.90;;;;;;5004625;28;20104;-82
2024/01/14 03:43:21;;;;;;;9.20;1.80;;;3.80;99.90;;;;;;5018585;28;20056;-82
2024/01/14 03:45:47;;;;;;;19.85;2.10;;;2.40;99.90;;;;;;4999670;28;20042;-85
2024/01/14 03:48:13;;;;;;;21.60;2.85;;;2.40;99.90;;;;;;5019590;28;20058;-84
2024/01/14 03:50:38;;;;;;;21.05;2.58;;;3.60;99.90;;;;;;5005105;28;20066;-83
2024/01/14 03:53:04;;;;;;;16.48;1.80;;;3.40;99.90;;;;;;5006064;28;20056;-84
2024/01/14 03:55:30;;;;;;;27.58;2.40;;;2.40;99.90;;;;;;5006891;28;20085;-87
2024/01/14 03:57:55;;;;;;;30.40;3.00;;;3.40;99.90;;;;;;5003689;28;20132;-84
2024/01/14 04:00:21;;;;;;;12.98;1.92;;;2.40;99.90;;;;;;5023407;28;20488;-82
2024/01/14 04:02:47;;;;;;;21.63;2.85;;;2.30;99.90;;;;;;4985551;28;20046;-83
2024/01/14 04:05:25;;;;;;;12.05;1.85;;;3.50;99.90;;;;;;5014757;28;20030;-90
2024/01/14 04:07:51;;;;;;;21.20;2.63;;;2.40;99.90;;;;;;5035404;28;20495;-86
2024/01/14 04:10:17;;;;;;;11.88;1.73;;;2.20;99.90;;;;;;5032845;28;20222;-85
2024/01/14 04:12:43;;;;;;;14.35;2.60;;;2.30;99.90;;;;;;5035253;28;20751;-89
2024/01/14 04:15:22;;;;;;;17.38;2.13;;;2.30;99.90;;;;;;5015449;28;20040;-85
2024/01/14 04:17:48;;;;;;;14.27;1.90;;;2.30;99.90;;;;;;5014865;28;20074;-82
2024/01/14 04:20:14;;;;;;;10.93;1.80;;;2.20;99.90;;;;;;5021803;28;20073;-92
2024/01/14 04:22:39;;;;;;;24.27;2.30;;;2.20;99.90;;;;;;5023431;28;20037;-86
2024/01/14 04:25:05;;;;;;;23.50;2.45;;;2.10;99.90;;;;;;5023540;28;20454;-87
2024/01/14 04:27:31;;;;;;;12.98;1.88;;;2.10;99.90;;;;;;5004226;28;20521;-83
2024/01/14 04:29:57;;;;;;;20.30;2.10;;;3.40;99.90;;;;;;5024130;28;20145;-84
2024/01/14 04:32:22;;;;;;;17.45;1.70;;;3.20;99.90;;;;;;5021912;28;20045;-81
2024/01/14 04:34:48;;;;;;;13.70;2.08;;;1.90;99.90;;;;;;5024016;28;20041;-85
2024/01/14 04:37:14;;;;;;;22.70;2.20;;;1.90;99.90;;;;;;5023508;28;20050;-83
2024/01/14 04:39:47;;;;;;;19.55;2.58;;;2.10;99.90;;;;;;5006131;28;20053;-83
2024/01/14 04:42:12;;;;;;;14.98;2.42;;;2.10;99.90;;;;;;5023569;28;20133;-83
2024/01/14 04:44:38;;;;;;;18.58;2.38;;;2.00;99.90;;;;;;5023025;28;20073;-83
2024/01/14 04:47:05;;;;;;;18.65;2.42;;;2.80;99.90;;;;;;5022682;28;20068;-80
2024/01/14 04:49:30;;;;;;;13.63;1.80;;;1.90;99.90;;;;;;5022691;28;20054;-85
2024/01/14 04:51:56;;;;;;;16.42;1.75;;;2.60;99.90;;;;;;5005402;28;20050;-83
2024/01/14 04:54:22;;;;;;;15.30;2.13;;;1.90;99.90;;;;;;5023279;28;20412;-82
2024/01/14 04:56:48;;;;;;;18.00;2.92;;;1.80;99.90;;;;;;5023415;28;20768;-83
2024/01/14 04:59:14;;;;;;;15.55;2.08;;;2.00;99.90;;;;;;5023672;28;20049;-83
2024/01/14 05:01:40;;;;;;;21.55;3.30;;;1.90;99.90;;;;;;5021040;28;20037;-83
2024/01/14 05:04:06;;;;;;;16.45;2.05;;;2.00;99.90;;;;;;5023114;28;20049;-83
2024/01/14 05:06:36;;;;;;;24.05;3.13;;;3.10;99.90;;;;;;5004498;28;20042;-83
2024/01/14 05:09:05;;;;;;;22.73;2.20;;;1.90;99.90;;;;;;5023471;28;20077;-84
2024/01/14 05:11:33;;;;;;;19.80;2.25;;;1.90;99.90;;;;;;5024480;28;20049;-83
2024/01/14 05:13:59;;;;;;;24.02;2.53;;;1.90;99.90;;;;;;5004465;28;20053;-87
2024/01/14 05:16:25;;;;;;;19.27;2.70;;;1.90;99.90;;;;;;5023506;28;20045;-83
2024/01/14 05:18:54;;;;;;;22.00;2.53;;;1.80;99.90;;;;;;5023833;28;20116;-85
2024/01/14 05:21:20;;;;;;;17.63;2.10;;;1.80;99.90;;;;;;5022195;28;20430;-83
2024/01/14 05:23:45;;;;;;;20.00;2.03;;;1.80;99.90;;;;;;5006694;28;20050;-83
2024/01/14 05:26:12;;;;;;;23.50;3.10;;;2.70;99.90;;;;;;5022702;28;20045;-86
2024/01/14 05:28:37;;;;;;;19.38;2.97;;;1.80;99.90;;;;;;5002561;28;20030;-91
2024/01/14 05:31:03;;;;;;;23.60;2.25;;;1.80;99.90;;;;;;5018376;28;20038;-87
2024/01/14 05:33:29;;;;;;;18.85;2.05;;;1.90;99.90;;;;;;5019039;28;20104;-82
2024/01/14 05:35:54;;;;;;;16.15;2.45;;;1.80;99.90;;;;;;5019120;28;20068;-84
2024/01/14 05:38:20;;;;;;;23.85;2.10;;;1.70;99.90;;;;;;5020043;28;20046;-83
2024/01/14 05:40:46;;;;;;;16.08;2.50;;;1.80;99.90;;;;;;5000995;28;20046;-83
2024/01/14 05:43:11;;;;;;;18.83;2.80;;;1.70;99.90;;;;;;5020921;28;20045;-88
2024/01/14 05:45:39;;;;;;;17.90;2.38;;;1.80;99.90;;;;;;5020417;28;20128;-85
2024/01/14 05:48:06;;;;;;;12.43;2.30;;;1.80;99.90;;;;;;4994281;28;20334;-84
2024/01/14 05:50:32;;;;;;;17.92;2.05;;;1.90;99.90;;;;;;5000541;28;20050;-84
2024/01/14 05:52:59;;;;;;;17.98;2.28;;;1.90;99.90;;;;;;4981471;28;20061;-83
2024/01/14 05:55:25;;;;;;;22.73;2.40;;;1.90;99.90;;;;;;4997650;28;20042;-85
2024/01/14 05:57:51;;;;;;;20.40;2.20;;;1.80;99.90;;;;;;5017444;28;20501;-83
2024/01/14 06:00:19;;;;;;;17.83;2.30;;;2.70;99.90;;;;;;5001109;28;20100;-82
2024/01/14 06:02:45;;;;;;;17.52;2.55;;;1.80;99.90;;;;;;5000089;28;20049;-86
2024/01/14 06:05:10;;;;;;;17.95;2.13;;;1.80;99.90;;;;;;5017883;28;20088;-84
2024/01/14 06:07:36;;;;;;;22.98;2.70;;;1.60;99.90;;;;;;4999619;28;20426;-83
2024/01/14 06:10:02;;;;;;;12.38;2.10;;;2.80;99.90;;;;;;4999856;28;20560;-83
2024/01/14 06:12:28;;;;;;;23.42;2.95;;;1.80;99.90;;;;;;5014336;28;20427;-85
2024/01/14 06:14:54;;;;;;;24.00;2.30;;;3.20;99.90;;;;;;5014359;28;20045;-83
2024/01/14 06:17:19;;;;;;;18.98;2.53;;;1.90;99.90;;;;;;5013498;28;20200;-85
2024/01/14 06:19:45;;;;;;;12.13;1.67;;;1.80;99.90;;;;;;5005134;28;20034;-85
2024/01/14 06:22:12;;;;;;;21.88;2.78;;;3.10;99.90;;;;;;5016999;28;20108;-86
2024/01/14 06:24:38;;;;;;;23.98;3.13;;;1.70;99.90;;;;;;4993593;28;20053;-86
2024/01/14 06:27:04;;;;;;;14.38;1.88;;;1.80;99.90;;;;;;5011082;28;20041;-85
2024/01/14 06:29:29;;;;;;;16.88;2.13;;;1.90;99.90;;;;;;4988634;28;20049;-85
2024/01/14 06:31:58;;;;;;;18.70;2.33;;;2.80;99.90;;;;;;4996733;28;20453;-83
2024/01/14 06:34:26;;;;;;;14.00;1.80;;;3.00;99.90;;;;;;5003425;28;20046;-82
2024/01/14 06:36:52;;;;;;;18.15;1.98;;;1.80;99.90;;;;;;5012298;28;20159;-84
2024/01/14 06:39:17;;;;;;;17.02;2.25;;;1.90;99.90;;;;;;5003940;28;20061;-84
2024/01/14 06:41:43;;;;;;;17.70;2.17;;;1.90;99.90;;;;;;5012363;28;20061;-83
2024/01/14 06:44:09;;;;;;;24.42;2.00;;;2.00;99.90;;;;;;4992701;28;20046;-86
2024/01/14 06:46:34;;;;;;;19.42;2.45;;;2.00;99.90;;;;;;5017814;28;20482;-85
2024/01/14 06:49:00;;;;;;;18.98;2.03;;;1.90;99.90;;;;;;4991577;28;20101;-84
2024/01/14 06:51:26;;;;;;;20.88;1.77;;;1.90;99.90;;;;;;5018742;28;20056;-83
2024/01/14 06:53:51;;;;;;;16.02;1.88;;;3.20;99.90;;;;;;5009388;28;20058;-92
2024/01/14 06:56:18;;;;;;;19.23;2.35;;;2.00;99.90;;;;;;5014628;28;20133;-88
2024/01/14 06:58:43;;;;;;;19.83;1.65;;;2.00;99.90;;;;;;4997548;28;20089;-83
2024/01/14 07:01:09;;;;;;;9.75;1.75;;;1.80;99.90;;;;;;5011176;28;20061;-81
2024/01/14 07:03:35;;;;;;;14.93;2.25;;;1.80;99.90;;;;;;5014708;28;20065;-93
2024/01/14 07:06:02;;;;;;;15.63;2.63;;;2.00;99.90;;;;;;5000131;28;20050;-83
2024/01/14 07:08:27;;;;;;;19.25;1.95;;;1.90;99.90;;;;;;4991728;28;20053;-82
2024/01/14 07:10:53;;;;;;;17.63;2.40;;;1.80;99.90;;;;;;4986931;28;20745;-82
2024/01/14 07:13:19;;;;;;;19.92;1.85;;;1.80;99.90;;;;;;5009208;28;20046;-84
2024/01/14 07:15:45;;;;;;;16.38;2.17;;;1.90;99.90;;;;;;5013431;28;20054;-82
2024/01/14 07:18:11;;;;;;;25.27;2.47;;;2.00;99.90;;;;;;5014085;28;20052;-83
2024/01/14 07:20:37;;;;;;;20.63;3.00;;;1.90;99.90;;;;;;4988587;28;20050;-87
2024/01/14 07:23:02;;;;;;;19.38;2.42;;;2.90;99.90;;;;;;5014802;28;20042;-82
2024/01/14 07:25:28;;;;;;;24.67;2.67;;;1.90;99.90;;;;;;5010278;28;20073;-85
2024/01/14 07:27:54;;;;;;;15.07;1.92;;;1.70;99.90;;;;;;4998855;28;20045;-86
2024/01/14 07:30:19;;;;;;;16.75;2.40;;;1.80;99.90;;;;;;5014892;28;20050;-83
2024/01/14 07:32:45;;;;;;;16.17;2.05;;;1.90;99.90;;;;;;5013372;28;20044;-83
2024/01/14 07:35:12;;;;;;;13.27;2.03;;;1.70;99.90;;;;;;5012194;28;20046;-85
2024/01/14 07:37:37;;;;;;;24.23;2.60;;;1.80;99.90;;;;;;5014684;28;20046;-84
2024/01/14 07:40:04;;;;;;;14.68;2.00;;;2.50;99.90;;;;;;5016565;28;20112;-83
2024/01/14 07:42:30;;;;;;;9.50;2.00;;;1.70;99.90;;;;;;4989094;28;20073;-88
2024/01/14 07:44:55;;;;;;;18.75;2.13;;;2.60;99.90;;;;;;5000889;28;20053;-83
2024/01/14 07:47:21;;;;;;;16.13;1.85;;;2.80;99.90;;;;;;5018891;28;20038;-83
2024/01/14 07:49:49;;;;;;;14.23;1.98;;;2.70;99.90;;;;;;5012738;28;20129;-81
2024/01/14 07:52:19;;;;;;;15.40;2.25;;;2.70;99.90;;;;;;4991297;28;20050;-87
2024/01/14 07:54:44;;;;;;;12.77;1.80;;;1.70;99.90;;;;;;5017268;28;20054;-90
2024/01/14 07:57:11;;;;;;;11.02;2.35;;;1.70;99.90;;;;;;5003955;28;20835;-86
2024/01/14 07:59:38;;;;;;;21.10;2.15;;;1.80;99.90;;;;;;4982971;28;20052;-88
2024/01/14 08:02:06;;;;;;;11.73;1.45;;;1.70;99.90;;;;;;5019983;28;20112;-82
2024/01/14 08:04:33;;;;;;;18.95;2.28;;;1.70;99.90;;;;;;5023725;28;20057;-88
2024/01/14 08:06:58;;;;;;;11.75;2.20;;;3.20;99.90;;;;;;5013461;28;20073;-83
2024/01/14 08:09:24;;;;;;;17.05;1.90;;;1.90;99.90;;;;;;5016592;28;20042;-82
2024/01/14 08:11:50;;;;;;;14.38;1.73;;;1.80;99.90;;;;;;5007833;28;20038;-82
2024/01/14 08:14:15;;;;;;;18.40;1.98;;;2.00;99.90;;;;;;5011475;28;20034;-82
2024/01/14 08:16:41;;;;;;;8.50;1.10;;;2.00;99.90;;;;;;5011235;28;20127;-83
2024/01/14 08:19:07;;;;;;;14.65;2.25;;;2.90;99.90;;;;;;5018517;28;20085;-83
2024/01/14 08:21:34;;;;;;;14.25;1.75;;;3.00;99.90;;;;;;5012359;28;20041;-83
2024/01/14 08:24:03;;;;;;;14.27;2.17;;;2.00;99.90;;;;;;5018841;28;20100;-83
2024/01/14 08:26:32;;;;;;;13.73;2.03;;;2.00;99.90;;;;;;5019214;28;20056;-84
2024/01/14 08:28:58;;;;;;;15.75;1.77;;;2.00;99.90;;;;;;5018370;28;20152;-82
2024/01/14 08:31:24;;;;;;;8.95;1.77;;;2.00;99.90;;;;;;5021660;28;20069;-83
2024/01/14 08:33:49;;;;;;;8.13;1.40;;;2.00;99.90;;;;;;5010312;28;20046;-89
2024/01/14 08:36:15;;;;;;;11.10;2.05;;;2.00;99.90;;;;;;5011481;28;20050;-83
2024/01/14 08:38:42;;;;;;;14.65;2.10;;;2.00;99.90;;;;;;5020342;28;20037;-81
2024/01/14 08:41:07;;;;;;;18.40;2.10;;;1.90;99.90;;;;;;4992506;28;20049;-85
2024/01/14 08:43:33;;;;;;;15.98;1.90;;;2.00;99.90;;;;;;5006958;28;20048;-83
2024/01/14 08:46:02;;;;;;;17.52;2.47;;;2.00;99.90;;;;;;5000595;28;20158;-83
2024/01/14 08:48:31;;;;;;;16.52;2.30;;;3.20;99.90;;;;;;5007417;28;20580;-83
2024/01/14 08:50:59;;;;;;;16.83;1.95;;;3.20;99.90;;;;;;4980328;28;20043;-83
2024/01/14 08:53:28;;;;;;;12.25;1.80;;;2.70;99.90;;;;;;5003729;28;20505;-83
2024/01/14 08:55:53;;;;;;;10.00;1.65;;;2.80;99.90;;;;;;5004161;28;20092;-82
2024/01/14 08:58:22;;;;;;;11.52;1.50;;;2.20;99.90;;;;;;4997567;28;20038;-82
2024/01/14 09:00:48;;;;;;;13.10;1.63;;;2.10;99.90;;;;;;5002277;28;20441;-81
2024/01/14 09:03:13;;;;;;;21.48;2.22;;;2.10;99.90;;;;;;5014332;28;20112;-83
2024/01/14 09:05:39;;;;;;;9.77;1.67;;;2.20;99.90;;;;;;5023569;28;20045;-84
2024/01/14 09:08:06;;;;;;;18.13;2.72;;;2.00;99.90;;;;;;5020497;28;20052;-84
2024/01/14 09:10:32;;;;;;;13.85;1.60;;;2.10;99.90;;;;;;5005489;28;20061;-82
2024/01/14 09:12:58;;;;;;;14.68;1.85;;;1.90;99.90;;;;;;5022591;28;20042;-82
2024/01/14 09:15:23;;;;;;;13.23;1.92;;;2.20;99.90;;;;;;5004494;28;20168;-82
2024/01/14 09:17:49;;;;;;;16.98;2.00;;;2.10;99.90;;;;;;5007512;28;20595;-82
2024/01/14 09:20:14;;;;;;;13.75;1.73;;;3.60;99.90;;;;;;5015893;28;20045;-83
2024/01/14 09:22:40;;;;;;;13.63;2.03;;;2.90;99.90;;;;;;5017937;28;20042;-81
2024/01/14 09:25:06;;;;;;;8.90;1.80;;;3.30;99.90;;;;;;5002314;28;20124;-83
2024/01/14 09:27:32;;;;;;;17.05;2.17;;;2.70;99.90;;;;;;5020164;28;20048;-82
2024/01/14 09:29:58;;;;;;;23.30;2.58;;;2.60;99.90;;;;;;5001850;28;20049;-82
2024/01/14 09:32:24;;;;;;;18.70;2.60;;;3.50;99.90;;;;;;5014132;28;20042;-82
2024/01/14 09:34:50;;;;;;;16.83;2.25;;;2.70;99.90;;;;;;4989997;28;20057;-85
2024/01/14 09:37:15;;;;;;;17.05;2.47;;;2.70;99.90;;;;;;5004520;28;20050;-83
2024/01/14 09:39:41;;;;;;;11.15;2.08;;;2.80;99.90;;;;;;5014067;28;20096;-84
2024/01/14 09:42:14;;;;;;;10.45;2.17;;;2.90;99.90;;;;;;5013730;28;20037;-83
2024/01/14 09:44:41;;;;;;;19.13;3.17;;;2.90;99.90;;;;;;5001730;28;20125;-88
2024/01/14 09:47:11;;;;;;;12.85;1.65;;;3.00;99.90;;;;;;4994427;28;20090;-84
2024/01/14 09:49:37;;;;;;;13.90;2.30;;;4.30;99.90;;;;;;5012285;28;20119;-83
2024/01/14 09:52:04;;;;;;;16.90;2.25;;;3.10;99.90;;;;;;5013839;28;20054;-84
2024/01/14 09:54:32;;;;;;;11.05;1.40;;;3.20;99.90;;;;;;4996997;28;20050;-84
2024/01/14 09:57:05;;;;;;;14.45;1.85;;;3.20;99.90;;;;;;5010555;28;20053;-83
2024/01/14 09:59:34;;;;;;;14.25;1.92;;;3.40;99.90;;;;;;5015604;28;20068;-84
2024/01/14 10:02:00;;;;;;;11.65;1.40;;;3.40;99.90;;;;;;5013940;28;20556;-83
2024/01/14 10:04:26;;;;;;;13.95;1.85;;;3.40;99.90;;;;;;5018640;28;20396;-84
2024/01/14 10:06:52;;;;;;;12.50;1.52;;;3.40;99.90;;;;;;5000576;28;20106;-84
2024/01/14 10:09:18;;;;;;;14.23;1.90;;;3.40;99.90;;;;;;5015098;28;20042;-85
2024/01/14 10:11:46;;;;;;;16.48;2.28;;;3.60;99.90;;;;;;5016291;28;20117;-86
2024/01/14 10:14:11;;;;;;;14.60;1.50;;;3.50;99.90;;;;;;5000293;28;20509;-84
2024/01/14 10:16:38;;;;;;;17.02;2.00;;;3.50;99.90;;;;;;4995643;28;20057;-85
2024/01/14 10:19:05;;;;;;;13.27;2.03;;;3.60;99.90;;;;;;5014341;28;20058;-89
2024/01/14 10:21:32;;;;;;;14.05;1.58;;;3.50;99.90;;;;;;5013739;28;20071;-84
2024/01/14 10:23:59;;;;;;;9.43;1.60;;;3.80;99.90;;;;;;4997348;28;20038;-85
2024/01/14 10:26:25;;;;;;;14.60;2.50;;;3.60;99.90;;;;;;4976392;28;20128;-83
2024/01/14 10:28:51;;;;;;;11.80;1.63;;;5.00;99.90;;;;;;5008535;28;20513;-86
2024/01/14 10:31:17;;;;;;;15.35;1.80;;;4.00;99.90;;;;;;5013569;28;20124;-87
2024/01/14 10:33:44;;;;;;;6.65;1.83;;;4.50;99.90;;;;;;5014792;28;20137;-86
2024/01/14 10:36:10;;;;;;;11.63;2.05;;;3.80;99.90;;;;;;5012820;28;20054;-84
2024/01/14 10:38:36;;;;;;;12.88;1.63;;;4.00;99.90;;;;;;5015691;28;20133;-85
2024/01/14 10:41:05;;;;;;;10.95;1.98;;;5.20;99.90;;;;;;5015168;28;20045;-86
2024/01/14 10:43:33;;;;;;;12.23;1.95;;;4.10;99.90;;;;;;4996553;28;20065;-83
2024/01/14 10:45:59;;;;;;;10.70;1.73;;;5.20;99.90;;;;;;4990316;28;20084;-83
2024/01/14 10:48:26;;;;;;;11.00;1.63;;;4.10;99.90;;;;;;5003957;28;20037;-84
2024/01/14 10:51:01;;;;;;;12.77;1.75;;;4.40;99.90;;;;;;4989150;28;20050;-81
2024/01/14 10:53:33;;;;;;;;;;;4.00;99.90;;;;;;4976598;28;20141;-84
2024/01/14 10:56:03;;;;;;;13.80;2.15;;;4.00;99.90;;;;;;4980953;28;19936;-82
2024/01/14 10:58:32;;;;;;;10.75;1.50;;;4.10;99.90;;;;;;4958947;28;20077;-82
2024/01/14 11:01:00;;;;;;;14.60;1.73;;;3.90;99.90;;;;;;4990665;28;20044;-82
2024/01/14 11:03:27;;;;;;;12.95;2.33;;;3.90;99.90;;;;;;4991414;28;20065;-82
2024/01/14 11:05:54;;;;;;;12.52;2.00;;;4.10;99.90;;;;;;4973749;28;20050;-86
2024/01/14 11:08:21;;;;;;;13.00;2.25;;;5.20;99.90;;;;;;4974064;28;20050;-83
2024/01/14 11:10:52;;;;;;;19.60;2.50;;;4.10;99.90;;;;;;4991058;28;20073;-83
2024/01/14 11:13:23;;;;;;;15.40;2.58;;;4.20;99.90;;;;;;4991132;28;20397;-85
2024/01/14 11:15:59;;;;;;;6.70;1.05;;;5.10;99.90;;;;;;4974307;28;20152;-83
2024/01/14 11:18:40;;;;;;;13.15;1.50;;;4.40;99.90;;;;;;4984669;28;20429;-81
2024/01/14 11:21:34;;;;;;;11.38;1.33;;;5.60;99.90;;;;;;4991711;28;20085;-89
2024/01/14 11:24:00;;;;;;;13.05;1.65;;;4.40;99.90;;;;;;4991369;28;20038;-86
2024/01/14 11:26:26;;;;;;;6.35;1.45;;;4.40;99.90;;;;;;4991010;28;20050;-85
2024/01/14 11:28:54;;;;;;;12.75;1.65;;;4.30;99.90;;;;;;4991582;28;20042;-88
2024/01/14 11:31:20;;;;;;;10.85;1.45;;;4.30;99.90;;;;;;4974029;28;20078;-87
2024/01/14 11:33:46;;;;;;;9.35;1.63;;;4.50;99.90;;;;;;4991360;28;20051;-91
2024/01/14 11:36:13;;;;;;;8.65;1.33;;;4.30;99.90;;;;;;4991512;28;20101;-83
2024/01/14 11:38:45;;;;;;;13.85;1.65;;;4.20;99.90;;;;;;4983165;28;20047;-85
2024/01/14 11:41:29;;;;;;;12.60;1.50;;;5.20;99.90;;;;;;4990647;28;20679;-83
2024/01/14 11:44:03;;;;;;;10.90;1.30;;;4.40;99.90;;;;;;4966766;28;20125;-83
2024/01/14 11:46:38;;;;;;;14.97;1.87;;;5.70;99.90;;;;;;4990944;28;20137;-88
2024/01/14 11:49:11;;;;;;;10.95;1.17;;;4.60;99.90;;;;;;4990429;28;20529;-82
2024/01/14 11:51:50;;;;;;;9.27;1.25;;;4.60;99.90;;;;;;4972873;28;20482;-82
2024/01/14 11:54:17;;;;;;;10.10;1.75;;;5.90;99.90;;;;;;4990251;28;20046;-81
2024/01/14 11:56:43;;;;;;;11.80;1.45;;;4.90;99.90;;;;;;4990686;28;20129;-92
2024/01/14 11:59:09;;;;;;;14.45;1.50;;;6.00;99.90;;;;;;4972494;28;20125;-82
2024/01/14 12:01:39;;;;;;;11.55;1.73;;;5.40;99.90;;;;;;4990542;28;20049;-82
2024/01/14 12:04:08;;;;;;;13.00;2.67;;;5.20;99.90;;;;;;4949419;28;20065;-81
2024/01/14 12:06:41;;;;;;;12.63;1.42;;;5.30;99.90;;;;;;4991593;28;20448;-82
2024/01/14 12:09:08;;;;;;;9.30;1.35;;;6.50;99.90;;;;;;4982887;28;20057;-81
2024/01/14 12:11:41;;;;;;;20.77;2.28;;;6.10;99.90;;;;;;4976119;28;20088;-88
2024/01/14 12:14:08;;;;;;;13.63;1.90;;;5.50;99.90;;;;;;4976581;28;20093;-84
2024/01/14 12:16:35;;;;;;;9.98;1.67;;;5.50;99.90;;;;;;4972307;28;20102;-86
2024/01/14 12:19:10;;;;;;;10.35;1.42;;;6.60;99.90;;;;;;4992492;28;20129;-85
2024/01/14 12:21:36;;;;;;;13.40;1.40;;;6.50;99.90;;;;;;4994310;28;20050;-82
2024/01/14 12:24:02;;;;;;;12.07;1.58;;;5.80;99.90;;;;;;4994285;28;20046;-85
2024/01/14 12:26:28;;;;;;;12.60;2.20;;;5.90;99.90;;;;;;4994385;28;20038;-88
2024/01/14 12:28:54;;;;;;;9.77;2.00;;;5.90;99.90;;;;;;4994228;28;20038;-84
2024/01/14 12:31:21;;;;;;;10.32;1.13;;;6.90;99.90;;;;;;4959842;28;20497;-86
2024/01/14 12:33:48;;;;;;;14.23;1.40;;;6.00;99.90;;;;;;4994356;28;20121;-81
2024/01/14 12:36:14;;;;;;;7.95;1.10;;;5.90;99.90;;;;;;4994290;28;20130;-89
2024/01/14 12:38:41;;;;;;;9.18;0.98;;;5.80;99.90;;;;;;4976545;28;20050;-90
2024/01/14 12:41:08;;;;;;;7.88;1.38;;;6.70;99.90;;;;;;4994336;28;20097;-84
2024/01/14 12:43:34;;;;;;;11.57;1.92;;;7.20;99.90;;;;;;4993812;28;20065;-82
2024/01/14 12:46:03;;;;;;;8.32;1.27;;;6.80;99.90;;;;;;4993133;28;20490;-81